Time;durP1;ratioP1;P1;durP2;ratioP2;P2;SDS_P1;SDS_P2;PMS_P1;PMS_P2;Temp;Humidity;BMP_temperature;BMP_pressure;BME280_temperature;BME280_humidity;BME280_pressure;Samples;Min_cycle;Max_cycle;Signal;HPM_P1;HPM_P2
2022/02/27 00:00:36;;;;;;;7.78;3.60;;;;;;;2.86;79.15;148386.28;1697007;83;21041;-62
2022/02/27 00:03:04;;;;;;;12.05;5.42;;;;;;;2.84;79.01;148379.81;1670719;84;21033;-63
2022/02/27 00:05:30;;;;;;;10.65;4.35;;;;;;;2.82;78.90;148375.97;1687761;84;21110;-62
2022/02/27 00:07:58;;;;;;;8.03;4.25;;;;;;;2.81;78.75;148373.41;1688869;83;22134;-62
2022/02/27 00:10:25;;;;;;;9.33;3.65;;;;;;;2.78;78.55;148365.66;1696442;84;21060;-62
2022/02/27 00:12:51;;;;;;;8.58;3.98;;;;;;;2.76;78.48;148360.45;1692391;84;21068;-61
2022/02/27 00:15:18;;;;;;;7.35;4.00;;;;;;;2.73;78.41;148352.72;1692751;83;21462;-63
2022/02/27 00:17:44;;;;;;;8.40;3.90;;;;;;;2.71;78.25;148348.87;1692315;84;21120;-63
2022/02/27 00:20:11;;;;;;;7.45;3.70;;;;;;;2.71;78.14;148347.56;1692345;84;21103;-63
2022/02/27 00:22:39;;;;;;;6.90;3.50;;;;;;;2.68;77.92;148341.16;1692490;83;21605;-62
2022/02/27 00:25:07;;;;;;;11.08;4.72;;;;;;;2.68;77.70;148339.84;1692784;84;21124;-62
2022/02/27 00:27:36;;;;;;;12.20;4.72;;;;;;;2.67;77.57;148337.27;1692580;84;22200;-63
2022/02/27 00:30:06;;;;;;;7.17;3.30;;;;;;;2.64;77.36;148329.53;1689696;84;21143;-63
2022/02/27 00:32:33;;;;;;;10.90;4.05;;;;;;;2.60;77.20;148320.48;1687134;84;21455;-62
2022/02/27 00:35:00;;;;;;;10.93;4.25;;;;;;;2.57;77.05;148312.75;1687482;85;21064;-62
2022/02/27 00:37:27;;;;;;;6.92;3.42;;;;;;;2.54;76.87;148305.02;1686722;84;21552;-63
2022/02/27 00:39:54;;;;;;;11.48;4.70;;;;;;;2.48;76.77;148290.83;1687066;85;21071;-63
2022/02/27 00:42:21;;;;;;;10.15;4.62;;;;;;;2.43;76.75;148279.25;1687029;85;21719;-63
2022/02/27 00:44:49;;;;;;;10.03;3.87;;;;;;;2.40;76.74;148270.20;1686973;85;21072;-62
2022/02/27 00:47:15;;;;;;;7.75;3.58;;;;;;;2.36;76.75;148259.91;1687149;84;21439;-62
2022/02/27 00:49:42;;;;;;;6.62;3.52;;;;;;;2.32;76.78;148249.55;1686772;85;21053;-63
2022/02/27 00:52:09;;;;;;;8.80;3.15;;;;;;;2.28;76.75;148241.81;1687043;85;21637;-62
2022/02/27 00:54:36;;;;;;;9.60;3.85;;;;;;;2.22;76.75;148225.09;1686822;85;21160;-63
2022/02/27 00:57:04;;;;;;;6.90;3.30;;;;;;;2.19;76.76;148218.62;1687569;85;21037;-63
2022/02/27 00:59:30;;;;;;;11.63;3.08;;;;;;;2.15;76.78;148208.33;1686878;84;21059;-62
2022/02/27 01:01:57;;;;;;;8.88;3.62;;;;;;;2.11;76.85;148198.02;1688199;84;21067;-63
2022/02/27 01:04:24;;;;;;;8.58;4.80;;;;;;;2.09;76.91;148194.13;1691976;84;21071;-63
2022/02/27 01:06:51;;;;;;;10.80;4.90;;;;;;;2.06;76.97;148185.09;1689403;83;21643;-62
2022/02/27 01:09:18;;;;;;;12.82;4.45;;;;;;;2.05;76.99;148182.52;1684730;83;21442;-63
2022/02/27 01:11:45;;;;;;;10.23;4.08;;;;;;;2.03;76.99;148177.36;1701909;83;21084;-63
2022/02/27 01:14:12;;;;;;;6.97;3.47;;;;;;;2.00;77.11;148172.22;1714037;83;21040;-62
2022/02/27 01:16:40;;;;;;;9.83;4.62;;;;;;;1.99;77.13;148169.64;1713369;83;21119;-62
2022/02/27 01:19:08;;;;;;;8.28;3.40;;;;;;;1.98;77.13;148167.06;1713864;83;21478;-62
2022/02/27 01:21:35;;;;;;;8.35;4.03;;;;;;;2.00;77.08;148170.94;1713620;83;21028;-63
2022/02/27 01:24:02;;;;;;;9.98;5.00;;;;;;;2.02;77.02;148176.09;1713682;83;21068;-61
2022/02/27 01:26:29;;;;;;;11.70;4.55;;;;;;;2.04;77.01;148179.94;1713488;83;21593;-63
2022/02/27 01:28:55;;;;;;;6.20;3.47;;;;;;;2.06;76.98;148185.09;1712689;83;21116;-62
2022/02/27 01:31:22;;;;;;;7.80;2.92;;;;;;;2.09;76.96;148192.81;1684835;83;21136;-63
2022/02/27 01:33:49;;;;;;;6.42;2.98;;;;;;;2.09;77.02;148194.13;1684711;85;21545;-63
2022/02/27 01:36:16;;;;;;;5.83;2.67;;;;;;;2.14;77.01;148205.75;1684953;83;21088;-63
2022/02/27 01:38:49;;;;;;;5.60;2.67;;;;;;;2.22;76.86;148225.09;1685142;83;21133;-63
2022/02/27 01:41:16;;;;;;;4.42;1.92;;;;;;;2.38;75.69;148266.31;1685090;83;21075;-63
2022/02/27 01:43:43;;;;;;;4.58;2.17;;;;;;;2.58;74.95;148316.64;1684732;83;21942;-62
2022/02/27 01:46:10;;;;;;;5.28;2.10;;;;;;;2.78;74.13;148365.66;1684990;85;21544;-63
2022/02/27 01:48:38;;;;;;;3.92;2.33;;;;;;;2.93;73.55;148401.75;1684589;85;21103;-63
2022/02/27 01:51:04;;;;;;;5.22;1.90;;;;;;;3.00;73.02;148419.84;1684790;85;21072;-62
2022/02/27 01:53:33;;;;;;;5.30;2.33;;;;;;;3.07;72.65;148437.89;1684835;85;21032;-62
2022/02/27 01:56:01;;;;;;;4.05;2.02;;;;;;;3.12;72.10;148449.52;1684852;85;21860;-64
2022/02/27 01:58:28;;;;;;;6.15;2.05;;;;;;;3.19;71.86;148466.25;1685456;84;21083;-62
2022/02/27 02:00:57;;;;;;;5.33;2.35;;;;;;;3.21;71.83;148471.47;1684244;83;21669;-63
2022/02/27 02:03:25;;;;;;;8.40;2.10;;;;;;;3.22;71.65;148474.03;1684159;84;21029;-63
2022/02/27 02:05:52;;;;;;;4.72;2.00;;;;;;;3.24;71.69;148479.19;1655188;85;21070;-63
2022/02/27 02:08:19;;;;;;;4.40;2.05;;;;;;;3.23;71.64;148476.61;1703225;84;21115;-62
2022/02/27 02:10:46;;;;;;;5.75;2.20;;;;;;;3.23;71.66;148476.61;1713087;83;21015;-59
2022/02/27 02:13:14;;;;;;;6.83;2.08;;;;;;;3.22;71.50;148474.03;1707620;82;21538;-59
2022/02/27 02:15:41;;;;;;;4.22;2.30;;;;;;;3.21;71.54;148472.72;1708071;82;21075;-58
2022/02/27 02:18:09;;;;;;;4.00;2.12;;;;;;;3.20;71.65;148468.83;1708436;83;21064;-58
2022/02/27 02:20:38;;;;;;;3.95;2.15;;;;;;;3.18;71.71;148463.67;1707940;82;21681;-63
2022/02/27 02:23:05;;;;;;;4.47;2.35;;;;;;;3.14;71.78;148455.94;1707914;82;21011;-59
2022/02/27 02:25:32;;;;;;;5.03;2.25;;;;;;;3.13;71.89;148453.36;1707221;82;21333;-63
2022/02/27 02:27:59;;;;;;;7.53;2.80;;;;;;;3.12;72.07;148449.52;1707474;83;21111;-62
2022/02/27 02:30:26;;;;;;;5.25;2.60;;;;;;;3.10;72.11;148445.62;1705671;83;21079;-63
2022/02/27 02:32:58;;;;;;;6.00;2.70;;;;;;;3.09;72.11;148443.05;1704322;84;21123;-63
2022/02/27 02:35:28;;;;;;;6.65;2.60;;;;;;;3.07;72.02;148437.89;1705046;84;21056;-63
2022/02/27 02:37:55;;;;;;;4.85;2.95;;;;;;;3.07;72.02;148437.89;1705523;84;21123;-63
2022/02/27 02:40:26;;;;;;;5.95;2.87;;;;;;;3.07;72.24;148437.89;1704533;84;21087;-59
2022/02/27 02:42:52;;;;;;;6.92;3.25;;;;;;;3.03;72.05;148427.58;1704636;84;21199;-59
2022/02/27 02:45:19;;;;;;;7.47;3.45;;;;;;;2.96;71.91;148409.48;1704337;84;21149;-63
2022/02/27 02:47:48;;;;;;;7.55;3.22;;;;;;;2.86;71.99;148386.28;1704278;84;21554;-62
2022/02/27 02:50:15;;;;;;;4.80;2.75;;;;;;;2.77;72.11;148363.09;1704412;84;21079;-60
2022/02/27 02:52:44;;;;;;;6.87;2.92;;;;;;;2.68;72.37;148339.84;1704302;84;21360;-58
2022/02/27 02:55:15;;;;;;;6.20;2.58;;;;;;;2.60;72.60;148319.22;1704764;84;21067;-59
2022/02/27 02:57:42;;;;;;;5.12;2.75;;;;;;;2.56;72.73;148311.48;1704624;84;21524;-58
2022/02/27 03:00:11;;;;;;;7.17;3.17;;;;;;;2.51;72.89;148298.56;1704606;84;21055;-57
2022/02/27 03:02:38;;;;;;;5.67;2.67;;;;;;;2.41;73.02;148274.05;1706033;84;21468;-59
2022/02/27 03:05:06;;;;;;;4.87;2.52;;;;;;;2.32;73.44;148249.55;1707076;84;21083;-59
2022/02/27 03:07:34;;;;;;;5.35;2.80;;;;;;;2.21;73.93;148223.78;1701211;84;21470;-57
2022/02/27 03:10:01;;;;;;;6.33;2.77;;;;;;;2.08;74.36;148190.25;1689238;84;21127;-58
2022/02/27 03:12:27;;;;;;;8.88;2.85;;;;;;;1.96;74.70;148161.91;1689080;83;21107;-58
2022/02/27 03:14:54;;;;;;;6.08;2.87;;;;;;;1.86;75.31;148136.09;1689441;84;20968;-59
2022/02/27 03:17:22;;;;;;;8.28;2.60;;;;;;;1.77;75.81;148112.92;1689324;84;21013;-63
2022/02/27 03:19:49;;;;;;;8.13;3.37;;;;;;;1.71;75.96;148098.73;1689231;84;21641;-63
2022/02/27 03:22:16;;;;;;;6.80;3.27;;;;;;;1.64;76.09;148080.70;1689486;84;21123;-63
2022/02/27 03:24:42;;;;;;;7.03;3.45;;;;;;;1.58;76.50;148066.52;1689527;84;21078;-63
2022/02/27 03:27:09;;;;;;;7.33;3.10;;;;;;;1.52;76.61;148051.06;1690173;84;21111;-63
2022/02/27 03:29:35;;;;;;;8.53;3.17;;;;;;;1.42;77.02;148027.84;1680734;84;21171;-63
2022/02/27 03:32:02;;;;;;;7.60;3.22;;;;;;;1.37;77.29;148014.97;1661873;86;21075;-62
2022/02/27 03:34:29;;;;;;;6.03;2.85;;;;;;;1.32;77.45;148000.78;1662058;86;22436;-63
2022/02/27 03:36:55;;;;;;;7.42;3.20;;;;;;;1.27;77.78;147989.23;1662601;86;21020;-63
2022/02/27 03:39:22;;;;;;;5.85;2.83;;;;;;;1.22;78.04;147976.36;1662734;86;21033;-62
2022/02/27 03:41:48;;;;;;;8.18;2.92;;;;;;;1.18;78.26;147967.31;1662089;84;21552;-62
2022/02/27 03:44:15;;;;;;;9.23;4.25;;;;;;;1.14;78.47;147958.28;1662214;86;21120;-62
2022/02/27 03:46:42;;;;;;;11.12;5.72;;;;;;;1.11;78.86;147950.56;1661797;84;21084;-62
2022/02/27 03:49:09;;;;;;;10.63;4.08;;;;;;;1.11;79.07;147950.56;1662607;86;21063;-62
2022/02/27 03:51:36;;;;;;;10.25;3.80;;;;;;;1.08;79.24;147942.84;1661816;84;21131;-63
2022/02/27 03:54:03;;;;;;;7.20;3.55;;;;;;;1.08;79.44;147941.53;1665321;84;21114;-62
2022/02/27 03:56:30;;;;;;;8.10;3.72;;;;;;;1.07;79.75;147940.27;1692490;83;21044;-63
2022/02/27 03:58:56;;;;;;;7.47;3.75;;;;;;;1.07;79.85;147940.27;1692380;84;22284;-62
2022/02/27 04:01:23;;;;;;;5.72;3.17;;;;;;;1.08;80.09;147942.84;1692295;83;21056;-62
2022/02/27 04:03:50;;;;;;;22.00;6.90;;;;;;;1.10;80.12;147946.69;1689382;84;21383;-63
2022/02/27 04:06:16;;;;;;;8.75;4.80;;;;;;;1.12;80.26;147953.14;1686735;83;21083;-63
2022/02/27 04:08:44;;;;;;;7.40;4.25;;;;;;;1.16;80.25;147962.17;1688147;84;21067;-62
2022/02/27 04:11:11;;;;;;;6.62;3.62;;;;;;;1.20;80.30;147971.16;1697092;84;21510;-63
2022/02/27 04:13:37;;;;;;;10.45;4.25;;;;;;;1.22;80.19;147976.36;1689624;84;21080;-63
2022/02/27 04:16:05;;;;;;;7.67;4.00;;;;;;;1.24;80.14;147981.50;1665535;86;21119;-63
2022/02/27 04:18:32;;;;;;;8.48;3.70;;;;;;;1.24;80.11;147982.77;1666074;86;21013;-59
2022/02/27 04:20:58;;;;;;;10.20;3.55;;;;;;;1.25;79.95;147984.08;1695176;83;21543;-63
2022/02/27 04:23:25;;;;;;;7.62;3.30;;;;;;;1.23;79.96;147980.19;1679468;84;21767;-62
2022/02/27 04:25:52;;;;;;;8.35;4.28;;;;;;;1.21;79.97;147973.73;1689531;84;21048;-63
2022/02/27 04:28:19;;;;;;;8.10;3.90;;;;;;;1.16;80.08;147962.17;1689883;84;21536;-62
2022/02/27 04:30:46;;;;;;;10.25;3.67;;;;;;;1.13;80.25;147954.45;1699462;83;21568;-62
2022/02/27 04:33:13;;;;;;;9.90;3.60;;;;;;;1.10;80.46;147947.98;1708569;83;21029;-62
2022/02/27 04:35:39;;;;;;;9.65;4.10;;;;;;;1.08;80.72;147942.84;1708270;83;20972;-63
2022/02/27 04:38:06;;;;;;;7.58;3.90;;;;;;;1.07;81.03;147940.27;1708222;83;21124;-63
2022/02/27 04:40:33;;;;;;;7.00;3.25;;;;;;;1.08;81.08;147942.84;1707592;83;20981;-63
2022/02/27 04:43:01;;;;;;;9.83;5.53;;;;;;;1.07;81.32;147940.27;1729123;82;21791;-62
2022/02/27 04:45:30;;;;;;;14.98;5.15;;;;;;;1.07;81.46;147940.27;1725772;83;21745;-62
2022/02/27 04:47:57;;;;;;;7.83;3.65;;;;;;;1.07;81.61;147940.27;1725969;82;21619;-63
2022/02/27 04:50:24;;;;;;;10.03;3.70;;;;;;;1.16;81.96;147960.86;1725663;83;21000;-62
2022/02/27 04:52:50;;;;;;;8.75;3.47;;;;;;;1.35;81.82;148009.81;1725799;83;21559;-63
2022/02/27 04:55:17;;;;;;;8.15;3.35;;;;;;;1.59;80.94;148069.09;1726179;82;21452;-62
2022/02/27 04:57:44;;;;;;;9.75;3.40;;;;;;;1.77;80.05;148114.23;1726007;83;21070;-63
2022/02/27 05:00:13;;;;;;;7.00;3.25;;;;;;;1.86;79.52;148136.09;1726189;83;21077;-62
2022/02/27 05:02:40;;;;;;;7.10;3.50;;;;;;;1.82;79.24;148127.11;1711061;83;21024;-63
2022/02/27 05:05:09;;;;;;;7.58;3.70;;;;;;;1.76;79.38;148111.61;1697160;82;21058;-63
2022/02/27 05:07:37;;;;;;;8.88;3.10;;;;;;;1.71;79.49;148100.05;1695153;82;21129;-62
2022/02/27 05:10:08;;;;;;;8.38;3.10;;;;;;;1.69;79.57;148094.89;1686478;84;21588;-62
2022/02/27 05:12:38;;;;;;;7.47;3.33;;;;;;;1.69;79.75;148094.89;1678032;84;21131;-63
2022/02/27 05:15:08;;;;;;;8.18;4.45;;;;;;;1.69;79.85;148093.58;1676550;84;21072;-63
2022/02/27 05:17:36;;;;;;;9.38;4.22;;;;;;;1.70;79.81;148097.47;1676987;85;21101;-63
2022/02/27 05:20:05;;;;;;;7.53;4.28;;;;;;;1.71;79.86;148100.05;1677374;85;21053;-62
2022/02/27 05:22:33;;;;;;;9.33;4.10;;;;;;;1.78;79.84;148115.50;1677351;84;20961;-63
2022/02/27 05:25:00;;;;;;;7.95;4.03;;;;;;;1.81;79.64;148123.22;1676694;85;21101;-63
2022/02/27 05:27:27;;;;;;;6.55;3.45;;;;;;;1.86;79.73;148136.09;1676416;85;21108;-62
2022/02/27 05:29:54;;;;;;;10.43;4.33;;;;;;;1.89;79.47;148143.88;1672730;85;21073;-62
2022/02/27 05:32:20;;;;;;;10.43;3.47;;;;;;;1.94;79.40;148156.75;1668082;86;21074;-62
2022/02/27 05:34:47;;;;;;;8.35;3.87;;;;;;;1.99;79.33;148169.64;1664155;86;21088;-63
2022/02/27 05:37:13;;;;;;;7.92;3.70;;;;;;;2.07;79.13;148187.67;1664514;86;21750;-63
2022/02/27 05:39:40;;;;;;;9.75;3.70;;;;;;;2.15;78.81;148208.33;1664259;86;21072;-63
2022/02/27 05:42:07;;;;;;;7.28;3.35;;;;;;;2.25;78.65;148234.09;1664504;86;21103;-63
2022/02/27 05:44:34;;;;;;;11.60;5.83;;;;;;;2.34;78.51;148254.75;1664165;86;21588;-63
2022/02/27 05:47:03;;;;;;;13.50;5.35;;;;;;;2.40;78.00;148270.20;1664410;86;21550;-62
2022/02/27 05:49:30;;;;;;;9.88;5.03;;;;;;;2.44;77.57;148280.52;1664274;86;21549;-62
2022/02/27 05:51:58;;;;;;;8.05;4.72;;;;;;;2.49;77.23;148292.14;1664082;86;21135;-62
2022/02/27 05:54:25;;;;;;;8.68;3.90;;;;;;;2.53;76.93;148303.70;1664096;86;21009;-62
2022/02/27 05:56:51;;;;;;;13.35;6.15;;;;;;;2.60;76.82;148319.22;1663913;85;21080;-63
2022/02/27 05:59:20;;;;;;;12.47;5.95;;;;;;;2.66;76.36;148334.69;1664663;86;21033;-62
2022/02/27 06:01:48;;;;;;;8.30;4.20;;;;;;;2.73;76.20;148352.72;1664788;86;21163;-63
2022/02/27 06:04:16;;;;;;;8.78;4.17;;;;;;;2.81;76.09;148373.41;1666873;86;21119;-62
2022/02/27 06:06:43;;;;;;;7.85;3.85;;;;;;;2.85;76.01;148383.70;1682140;85;21060;-62
2022/02/27 06:09:09;;;;;;;9.35;3.70;;;;;;;2.92;76.06;148399.17;1690091;83;21054;-62
2022/02/27 06:11:36;;;;;;;8.85;3.87;;;;;;;3.00;75.85;148419.84;1706255;81;21079;-62
2022/02/27 06:14:03;;;;;;;10.00;3.42;;;;;;;3.09;76.02;148443.05;1691884;83;21105;-62
2022/02/27 06:16:30;;;;;;;7.83;3.52;;;;;;;3.20;76.06;148468.83;1692157;84;20980;-62
2022/02/27 06:18:57;;;;;;;7.83;3.62;;;;;;;3.29;75.85;148493.34;1692275;83;21072;-62
2022/02/27 06:21:23;;;;;;;8.58;3.27;;;;;;;3.38;75.14;148515.30;1692056;84;21021;-62
2022/02/27 06:23:50;;;;;;;8.35;2.75;;;;;;;3.48;74.68;148539.81;1691922;83;21068;-62
2022/02/27 06:26:17;;;;;;;8.03;3.20;;;;;;;3.59;74.65;148566.92;1691927;84;22414;-62
2022/02/27 06:28:45;;;;;;;7.22;3.10;;;;;;;3.72;74.02;148599.19;1691860;83;21039;-62
2022/02/27 06:31:11;;;;;;;8.78;3.30;;;;;;;3.87;72.78;148636.67;1691930;84;21088;-62
2022/02/27 06:33:38;;;;;;;5.12;3.08;;;;;;;3.87;72.78;148636.67;1693545;84;21130;-62
2022/02/27 06:36:05;;;;;;;7.45;3.45;;;;;;;3.92;72.42;148648.25;1671021;85;21071;-66
2022/02/27 06:38:34;;;;;;;7.60;3.33;;;;;;;3.97;71.72;148661.16;1671200;85;21560;-62
2022/02/27 06:41:02;;;;;;;5.85;2.92;;;;;;;4.00;71.68;148670.20;1672247;85;21131;-62
2022/02/27 06:43:31;;;;;;;5.50;2.92;;;;;;;4.05;71.52;148680.53;1672519;85;21072;-62
2022/02/27 06:45:57;;;;;;;6.17;3.12;;;;;;;4.09;71.00;148690.84;1691236;84;21075;-62
2022/02/27 06:48:23;;;;;;;9.65;3.12;;;;;;;4.12;71.07;148698.64;1691620;84;21648;-63
2022/02/27 06:50:50;;;;;;;8.35;3.45;;;;;;;4.20;70.88;148719.28;1691523;84;21600;-62
2022/02/27 06:53:17;;;;;;;7.90;3.50;;;;;;;4.25;70.54;148732.19;1691553;84;21108;-62
2022/02/27 06:55:43;;;;;;;7.65;3.47;;;;;;;4.25;70.25;148732.19;1691271;84;21107;-62
2022/02/27 06:58:10;;;;;;;11.70;3.67;;;;;;;4.23;69.72;148727.03;1692276;84;21017;-63
2022/02/27 07:00:37;;;;;;;6.53;3.20;;;;;;;4.23;69.72;148727.03;1692143;84;20965;-62
2022/02/27 07:03:04;;;;;;;5.97;3.17;;;;;;;4.26;69.05;148734.77;1694279;83;21556;-64
2022/02/27 07:05:31;;;;;;;7.00;3.45;;;;;;;4.21;68.82;148721.86;1694947;84;21095;-63
2022/02/27 07:07:58;;;;;;;7.40;3.33;;;;;;;4.18;69.24;148714.13;1694910;84;21031;-62
2022/02/27 07:10:25;;;;;;;7.95;3.10;;;;;;;4.21;69.45;148720.59;1702357;83;21005;-62
2022/02/27 07:12:52;;;;;;;7.40;3.85;;;;;;;4.26;69.61;148734.77;1689873;84;21052;-62
2022/02/27 07:15:18;;;;;;;8.68;3.67;;;;;;;4.30;69.16;148745.09;1689962;84;21146;-63
2022/02/27 07:17:45;;;;;;;7.12;3.05;;;;;;;4.35;69.03;148755.47;1689661;84;21059;-63
2022/02/27 07:20:12;;;;;;;5.87;3.20;;;;;;;4.49;68.81;148791.59;1689763;84;21079;-63
2022/02/27 07:22:39;;;;;;;8.60;3.37;;;;;;;4.51;67.86;148796.75;1689542;84;21084;-63
2022/02/27 07:25:09;;;;;;;5.85;3.27;;;;;;;4.51;67.86;148796.75;1690335;84;21083;-63
2022/02/27 07:27:35;;;;;;;8.20;3.55;;;;;;;4.51;67.44;148796.75;1690546;84;21710;-63
2022/02/27 07:30:04;;;;;;;11.20;4.20;;;;;;;4.52;67.74;148799.34;1691068;84;21064;-63
2022/02/27 07:32:32;;;;;;;6.95;3.90;;;;;;;4.58;67.59;148814.88;1691950;84;21501;-62
2022/02/27 07:34:59;;;;;;;8.08;3.27;;;;;;;4.63;67.41;148825.19;1692012;84;21254;-61
2022/02/27 07:37:26;;;;;;;8.95;3.50;;;;;;;4.68;67.25;148838.11;1691782;84;20942;-62
2022/02/27 07:39:52;;;;;;;7.10;3.87;;;;;;;4.72;67.13;148849.75;1691953;84;22128;-62
2022/02/27 07:42:19;;;;;;;6.55;3.55;;;;;;;4.79;66.86;148866.56;1691726;84;21044;-62
2022/02/27 07:44:46;;;;;;;6.95;3.33;;;;;;;4.79;66.15;148865.23;1691559;84;21052;-62
2022/02/27 07:47:13;;;;;;;8.48;3.25;;;;;;;4.74;65.95;148853.59;1692185;84;21025;-59
2022/02/27 07:49:40;;;;;;;7.20;2.90;;;;;;;4.72;65.93;148848.44;1691661;84;21350;-59
2022/02/27 07:52:09;;;;;;;6.80;3.00;;;;;;;4.73;66.13;148851.02;1691730;84;21613;-58
2022/02/27 07:54:36;;;;;;;5.83;2.75;;;;;;;4.81;65.30;148871.72;1697032;84;21395;-59
2022/02/27 07:57:03;;;;;;;6.55;3.00;;;;;;;4.85;64.09;148882.05;1706891;83;21398;-63
2022/02/27 07:59:30;;;;;;;4.83;1.98;;;;;;;4.87;63.87;148887.20;1710033;82;21024;-63
2022/02/27 08:01:56;;;;;;;5.58;2.67;;;;;;;4.90;61.47;148893.69;1686636;84;22141;-62
2022/02/27 08:04:24;;;;;;;6.30;2.70;;;;;;;4.92;61.55;148897.53;1668994;84;21149;-63
2022/02/27 08:06:50;;;;;;;5.50;2.58;;;;;;;4.97;61.89;148910.44;1666923;84;21067;-59
2022/02/27 08:09:17;;;;;;;4.00;2.20;;;;;;;5.06;61.56;148932.41;1669786;84;21019;-59
2022/02/27 08:11:48;;;;;;;4.05;1.87;;;;;;;5.14;59.88;148953.13;1682752;84;21146;-60
2022/02/27 08:14:15;;;;;;;3.80;1.95;;;;;;;5.22;59.38;148972.52;1674654;84;21129;-59
2022/02/27 08:16:42;;;;;;;14.18;2.17;;;;;;;5.28;56.84;148988.02;1674857;84;21138;-59
2022/02/27 08:19:09;;;;;;;11.25;2.20;;;;;;;5.33;57.00;149000.92;1675039;84;21057;-63
2022/02/27 08:21:35;;;;;;;4.75;2.02;;;;;;;5.38;56.88;149013.84;1674808;84;21109;-63
2022/02/27 08:24:04;;;;;;;9.90;2.37;;;;;;;5.41;56.88;149021.59;1674560;85;21133;-63
2022/02/27 08:26:30;;;;;;;8.05;2.10;;;;;;;5.43;55.96;149026.81;1674915;84;21586;-62
2022/02/27 08:28:59;;;;;;;9.05;1.82;;;;;;;5.51;55.80;149046.16;1674876;84;21173;-62
2022/02/27 08:31:26;;;;;;;4.70;1.85;;;;;;;5.55;54.78;149055.22;1674849;84;21002;-63
2022/02/27 08:33:53;;;;;;;4.12;2.17;;;;;;;5.59;54.21;149065.55;1674720;85;22137;-63
2022/02/27 08:36:20;;;;;;;7.70;1.65;;;;;;;5.60;53.41;149068.13;1675095;84;21089;-62
2022/02/27 08:38:50;;;;;;;8.48;1.60;;;;;;;5.63;54.16;149074.63;1674885;84;21105;-63
2022/02/27 08:41:17;;;;;;;11.43;2.02;;;;;;;5.69;53.47;149091.44;1675392;85;21062;-63
2022/02/27 08:43:44;;;;;;;13.50;1.72;;;;;;;5.72;52.96;149099.19;1674607;84;21599;-63
2022/02/27 08:46:11;;;;;;;9.63;1.45;;;;;;;5.79;52.93;149114.69;1675024;85;21073;-63
2022/02/27 08:48:38;;;;;;;5.58;1.92;;;;;;;5.83;52.33;149126.34;1674537;84;21112;-62
2022/02/27 08:51:06;;;;;;;5.03;1.40;;;;;;;5.86;52.37;149132.81;1674323;84;21137;-62
2022/02/27 08:53:34;;;;;;;3.62;1.75;;;;;;;5.80;52.23;149117.28;1674355;84;21704;-62
2022/02/27 08:56:00;;;;;;;7.58;1.60;;;;;;;5.77;52.52;149109.52;1674249;84;21129;-62
2022/02/27 08:58:27;;;;;;;6.40;1.57;;;;;;;5.78;52.84;149112.11;1674806;84;21508;-62
2022/02/27 09:00:54;;;;;;;6.80;1.37;;;;;;;5.84;52.42;149128.92;1674792;84;21112;-62
2022/02/27 09:03:24;;;;;;;3.65;1.90;;;;;;;5.88;53.75;149138.00;1674738;84;21004;-62
2022/02/27 09:05:49;;;;;;;6.15;2.22;;;;;;;5.92;54.63;149148.33;1673568;85;21532;-58
2022/02/27 09:08:16;;;;;;;5.03;2.08;;;;;;;5.98;54.86;149163.83;1674690;85;21079;-58
2022/02/27 09:10:45;;;;;;;7.33;2.17;;;;;;;6.08;54.97;149187.14;1675065;84;21116;-59
2022/02/27 09:13:12;;;;;;;4.80;2.12;;;;;;;6.17;54.98;149210.44;1698181;84;21510;-63
2022/02/27 09:15:40;;;;;;;5.53;1.70;;;;;;;6.19;55.17;149215.62;1697377;84;21497;-63
2022/02/27 09:18:07;;;;;;;7.37;2.10;;;;;;;6.15;54.66;149206.55;1698210;84;21474;-63
2022/02/27 09:20:33;;;;;;;5.30;1.90;;;;;;;6.13;55.76;149201.38;1698045;84;21706;-63
2022/02/27 09:23:00;;;;;;;6.78;2.12;;;;;;;6.08;56.99;149188.45;1698463;84;21048;-63
2022/02/27 09:25:27;;;;;;;3.62;2.25;;;;;;;5.98;56.42;149163.83;1698409;84;21087;-63
2022/02/27 09:27:55;;;;;;;6.05;2.75;;;;;;;5.88;57.75;149138.00;1698294;84;21067;-63
2022/02/27 09:30:22;;;;;;;4.87;2.12;;;;;;;5.81;59.94;149119.86;1706432;83;21267;-62
2022/02/27 09:32:49;;;;;;;6.30;2.22;;;;;;;5.77;60.79;149109.52;1698893;84;21093;-62
2022/02/27 09:35:15;;;;;;;5.62;2.40;;;;;;;5.72;61.02;149099.19;1699987;84;20998;-63
2022/02/27 09:37:43;;;;;;;7.50;2.47;;;;;;;5.71;60.84;149096.59;1699197;84;21060;-62
2022/02/27 09:40:11;;;;;;;5.95;2.40;;;;;;;5.69;60.82;149091.44;1669768;84;21073;-63
2022/02/27 09:42:38;;;;;;;5.72;1.95;;;;;;;5.65;61.30;149081.09;1662163;85;21131;-60
2022/02/27 09:45:06;;;;;;;5.80;1.90;;;;;;;5.59;61.04;149065.55;1662487;85;21498;-59
2022/02/27 09:47:33;;;;;;;4.65;1.85;;;;;;;5.56;61.96;149059.12;1687484;83;22065;-59
2022/02/27 09:50:01;;;;;;;5.33;2.20;;;;;;;5.59;62.57;149066.88;1688343;83;21678;-63
2022/02/27 09:52:28;;;;;;;3.98;1.98;;;;;;;5.64;62.86;149077.20;1683594;84;21096;-59
2022/02/27 09:54:55;;;;;;;6.75;2.22;;;;;;;5.66;63.07;149083.69;1686837;83;21979;-59
2022/02/27 09:57:22;;;;;;;3.87;1.80;;;;;;;5.67;62.39;149086.27;1688336;83;21502;-59
2022/02/27 09:59:49;;;;;;;4.12;1.60;;;;;;;5.64;63.19;149078.52;1686031;83;21068;-58
2022/02/27 10:02:15;;;;;;;4.50;1.80;;;;;;;5.66;63.61;149083.69;1669820;85;21072;-58
2022/02/27 10:04:44;;;;;;;5.90;1.80;;;;;;;5.69;63.00;149091.44;1682737;85;21136;-59
2022/02/27 10:07:14;;;;;;;5.53;1.80;;;;;;;5.70;63.13;149094.02;1655373;86;21145;-59
2022/02/27 10:09:43;;;;;;;3.98;1.90;;;;;;;5.71;62.07;149096.59;1690381;83;21119;-58
2022/02/27 10:12:24;;;;;;;2.87;1.77;;;;;;;5.68;61.97;149088.84;1699258;83;21131;-60
2022/02/27 10:15:08;;;;;;;4.47;1.52;;;;;;;5.68;61.76;149088.84;1694551;83;21071;-59
2022/02/27 10:17:38;;;;;;;4.00;1.67;;;;;;;5.68;62.62;149088.84;1694745;83;21024;-61
2022/02/27 10:20:13;;;;;;;4.87;1.50;;;;;;;5.72;62.03;149099.19;1694493;83;21096;-59
2022/02/27 10:22:42;;;;;;;3.67;1.50;;;;;;;5.76;61.63;149108.25;1663022;85;21059;-59
2022/02/27 10:25:25;;;;;;;4.50;1.52;;;;;;;5.78;61.95;149112.11;1676170;83;21157;-59
2022/02/27 10:28:00;;;;;;;5.87;1.37;;;;;;;5.80;62.58;149117.28;1696138;84;21081;-59
2022/02/27 10:30:38;;;;;;;4.30;1.50;;;;;;;5.84;62.51;149127.61;1717785;83;20924;-58
2022/02/27 10:33:07;;;;;;;2.83;1.20;;;;;;;5.89;62.82;149140.58;1698530;83;21136;-60
2022/02/27 10:35:53;;;;;;;3.90;1.40;;;;;;;5.91;63.22;149144.42;1727646;82;21596;-59
2022/02/27 10:38:44;;;;;;;3.25;1.40;;;;;;;5.93;62.17;149150.91;1703613;82;21494;-60
2022/02/27 10:41:16;;;;;;;8.78;1.37;;;;;;;5.97;61.09;149159.97;1668552;86;21070;-62
2022/02/27 10:43:44;;;;;;;4.08;1.00;;;;;;;6.00;61.53;149167.73;1697262;84;21056;-63
2022/02/27 10:46:12;;;;;;;6.35;1.20;;;;;;;6.05;62.84;149179.39;1697960;84;21142;-63
2022/02/27 10:48:39;;;;;;;3.62;1.45;;;;;;;6.08;60.82;149187.14;1668142;84;20956;-59
2022/02/27 10:51:10;;;;;;;2.50;1.27;;;;;;;6.07;61.83;149185.88;1697941;84;21028;-60
2022/02/27 10:53:42;;;;;;;4.75;1.30;;;;;;;6.11;61.79;149194.94;1667942;84;20964;-58
2022/02/27 10:56:11;;;;;;;3.60;1.42;;;;;;;6.15;59.93;149205.28;1697863;83;21631;-59
2022/02/27 10:58:44;;;;;;;7.65;1.32;;;;;;;6.20;57.97;149216.94;1668231;84;21128;-58
2022/02/27 11:01:19;;;;;;;6.85;1.22;;;;;;;6.24;57.01;149228.53;1697924;83;21581;-59
2022/02/27 11:03:54;;;;;;;2.33;1.20;;;;;;;6.30;58.25;149244.09;1668131;84;21599;-59
2022/02/27 11:06:21;;;;;;;1.98;1.00;;;;;;;6.36;59.38;149258.28;1697881;83;21002;-59
2022/02/27 11:08:48;;;;;;;3.15;1.20;;;;;;;6.39;59.05;149266.05;1697624;83;21516;-57
2022/02/27 11:11:16;;;;;;;2.58;1.37;;;;;;;6.39;58.32;149264.78;1690893;84;21027;-59
2022/02/27 11:13:45;;;;;;;3.60;1.27;;;;;;;6.39;57.76;149264.78;1686815;83;21576;-59
2022/02/27 11:16:13;;;;;;;4.55;1.25;;;;;;;6.40;57.00;149267.36;1686544;83;21629;-59
2022/02/27 11:18:42;;;;;;;2.92;1.00;;;;;;;6.34;56.62;149251.84;1687236;83;21083;-59
2022/02/27 11:21:10;;;;;;;5.12;1.35;;;;;;;6.27;56.04;149235.03;1688000;83;21134;-59
2022/02/27 11:23:39;;;;;;;5.33;1.40;;;;;;;6.22;56.03;149223.37;1686995;84;21637;-63
2022/02/27 11:26:06;;;;;;;2.67;1.12;;;;;;;6.19;55.23;149215.62;1690552;84;20963;-62
2022/02/27 11:28:33;;;;;;;3.77;1.30;;;;;;;6.18;55.14;149213.03;1690562;83;21075;-63
2022/02/27 11:31:02;;;;;;;2.62;1.15;;;;;;;6.18;55.83;149211.72;1690627;83;21105;-63
2022/02/27 11:33:29;;;;;;;4.22;1.32;;;;;;;6.21;56.76;149219.52;1690497;84;21030;-63